Time;durP1;ratioP1;P1;durP2;ratioP2;P2;SDS_P1;SDS_P2;PMS_P1;PMS_P2;Temp;Humidity;BMP_temperature;BMP_pressure;BME280_temperature;BME280_humidity;BME280_pressure;Samples;Min_cycle;Max_cycle;Signal;HPM_P1;HPM_P2
2021/07/05 00:02:14;;;;;;;8.35;7.55;;;23.30;57.00;;;;;;5071531;28;20548;-84
2021/07/05 00:04:43;;;;;;;8.23;7.43;;;23.30;57.00;;;;;;5088826;28;20520;-82
2021/07/05 00:07:11;;;;;;;8.00;7.20;;;23.30;57.10;;;;;;5088247;28;20173;-84
2021/07/05 00:09:39;;;;;;;8.30;7.50;;;23.30;57.10;;;;;;5088317;28;20667;-84
2021/07/05 00:12:08;;;;;;;7.82;7.03;;;23.30;57.10;;;;;;5088272;28;20204;-83
2021/07/05 00:14:36;;;;;;;8.45;7.63;;;23.20;57.10;;;;;;5088045;28;20177;-84
2021/07/05 00:17:04;;;;;;;8.05;7.25;;;23.30;57.10;;;;;;5088351;28;20756;-83
2021/07/05 00:19:32;;;;;;;8.07;7.25;;;23.20;57.10;;;;;;5071301;28;20177;-83
2021/07/05 00:21:59;;;;;;;8.40;7.57;;;23.30;57.20;;;;;;5071347;28;20181;-83
2021/07/05 00:24:27;;;;;;;8.63;7.72;;;23.20;57.10;;;;;;5088059;28;20177;-84
2021/07/05 00:26:54;;;;;;;7.57;6.88;;;23.30;57.20;;;;;;5104859;28;20231;-83
2021/07/05 00:29:23;;;;;;;8.63;7.72;;;23.20;57.10;;;;;;5088072;28;20593;-82
2021/07/05 00:31:50;;;;;;;8.45;7.55;;;23.20;57.10;;;;;;5071468;28;20184;-81
2021/07/05 00:34:17;;;;;;;8.35;7.45;;;23.20;57.20;;;;;;5104888;28;20173;-84
2021/07/05 00:36:45;;;;;;;9.07;7.68;;;23.20;57.20;;;;;;5105150;28;20213;-83
2021/07/05 00:39:12;;;;;;;7.78;6.97;;;23.20;57.20;;;;;;5104732;28;20208;-83
2021/07/05 00:41:39;;;;;;;7.55;6.80;;;23.20;57.20;;;;;;5087935;28;20173;-84
2021/07/05 00:44:06;;;;;;;8.00;7.20;;;23.20;57.30;;;;;;5087829;28;20204;-81
2021/07/05 00:46:33;;;;;;;8.02;7.22;;;23.20;57.30;;;;;;5104744;28;20691;-82
2021/07/05 00:49:00;;;;;;;8.00;7.20;;;23.20;57.30;;;;;;5087780;28;20260;-83
2021/07/05 00:51:26;;;;;;;7.93;7.15;;;23.20;57.30;;;;;;5087341;28;20185;-83
2021/07/05 00:53:54;;;;;;;8.07;7.28;;;23.10;57.30;;;;;;5084285;28;20282;-83
2021/07/05 00:56:22;;;;;;;9.10;8.10;;;23.20;57.30;;;;;;5076445;28;20222;-83
2021/07/05 00:58:50;;;;;;;7.85;6.78;;;23.20;57.30;;;;;;5095088;28;20585;-81
2021/07/05 01:01:17;;;;;;;8.10;7.30;;;23.20;57.30;;;;;;5095212;28;20275;-82
2021/07/05 01:03:43;;;;;;;7.97;7.18;;;23.20;57.30;;;;;;5095938;28;20149;-81
2021/07/05 01:06:09;;;;;;;8.13;7.32;;;23.10;58.00;;;;;;5078768;28;20168;-83
2021/07/05 01:08:34;;;;;;;8.15;7.35;;;23.10;58.00;;;;;;5078848;28;20504;-83
2021/07/05 01:11:00;;;;;;;8.45;7.55;;;23.20;57.40;;;;;;5095750;28;20290;-83
2021/07/05 01:13:25;;;;;;;7.93;7.13;;;23.20;57.40;;;;;;5096805;28;20149;-82
2021/07/05 01:15:51;;;;;;;8.02;7.22;;;23.10;57.40;;;;;;5095606;28;20623;-81
2021/07/05 01:18:17;;;;;;;8.00;7.20;;;23.10;57.40;;;;;;5095493;28;20168;-81
2021/07/05 01:20:43;;;;;;;7.68;6.97;;;23.10;57.50;;;;;;5096657;28;20156;-82
2021/07/05 01:23:10;;;;;;;7.95;7.15;;;23.10;57.40;;;;;;5095527;28;20160;-83
2021/07/05 01:25:36;;;;;;;8.30;7.50;;;23.10;57.40;;;;;;5096628;28;20206;-81
2021/07/05 01:28:03;;;;;;;8.20;7.18;;;23.10;57.40;;;;;;5078449;28;20658;-82
2021/07/05 01:30:29;;;;;;;7.88;7.07;;;23.10;57.50;;;;;;5095270;28;20153;-83
2021/07/05 01:33:04;;;;;;;8.05;7.25;;;23.20;57.40;;;;;;5096434;28;20210;-83
2021/07/05 01:35:29;;;;;;;8.18;7.38;;;23.10;57.40;;;;;;5095574;28;20184;-81
2021/07/05 01:37:55;;;;;;;8.60;7.47;;;23.10;57.40;;;;;;5096360;28;20168;-81
2021/07/05 01:40:21;;;;;;;7.93;7.10;;;23.10;57.50;;;;;;5095133;28;20161;-84
2021/07/05 01:42:51;;;;;;;7.78;7.00;;;23.10;57.50;;;;;;5095186;28;20141;-82
2021/07/05 01:45:20;;;;;;;8.15;7.35;;;23.10;57.50;;;;;;5095287;28;20624;-82
2021/07/05 01:47:45;;;;;;;7.85;7.05;;;23.10;57.50;;;;;;5095199;28;20149;-81
2021/07/05 01:50:12;;;;;;;7.82;6.80;;;23.10;57.50;;;;;;5095395;28;20251;-83
2021/07/05 01:52:37;;;;;;;8.07;7.28;;;23.10;57.50;;;;;;5095148;28;20161;-81
2021/07/05 01:55:04;;;;;;;8.32;7.38;;;23.10;57.50;;;;;;5095998;28;20157;-83
2021/07/05 01:57:33;;;;;;;7.50;6.80;;;23.10;57.60;;;;;;5078193;28;20289;-83
2021/07/05 01:59:59;;;;;;;7.80;7.00;;;23.10;57.60;;;;;;5094619;28;20169;-82
2021/07/05 02:02:27;;;;;;;7.50;6.70;;;23.10;57.60;;;;;;5078050;28;20177;-83
2021/07/05 02:04:53;;;;;;;8.40;7.50;;;23.10;57.60;;;;;;5076985;28;20188;-81
2021/07/05 02:07:19;;;;;;;8.02;7.22;;;23.10;57.50;;;;;;5093776;28;20206;-81
2021/07/05 02:09:45;;;;;;;7.80;7.00;;;23.10;57.60;;;;;;5094654;28;20683;-81
2021/07/05 02:12:11;;;;;;;7.85;7.05;;;23.10;57.60;;;;;;5094510;28;20160;-82
2021/07/05 02:14:37;;;;;;;8.40;7.60;;;23.00;57.60;;;;;;5077582;28;20164;-83
2021/07/05 02:17:04;;;;;;;7.93;7.13;;;23.10;58.40;;;;;;5077518;28;20249;-81
2021/07/05 02:19:30;;;;;;;8.35;7.55;;;23.10;57.60;;;;;;5094403;28;20160;-82
2021/07/05 02:21:55;;;;;;;7.82;7.03;;;23.10;57.60;;;;;;5095563;28;20157;-81
2021/07/05 02:24:21;;;;;;;8.38;7.57;;;23.10;57.60;;;;;;5077432;28;20183;-83
2021/07/05 02:26:47;;;;;;;8.10;7.30;;;23.10;57.60;;;;;;5094206;28;20187;-83
2021/07/05 02:29:13;;;;;;;8.43;7.47;;;23.10;57.60;;;;;;5077336;28;20172;-82
2021/07/05 02:31:39;;;;;;;7.80;7.00;;;23.00;57.60;;;;;;5095669;28;20194;-83
2021/07/05 02:34:06;;;;;;;7.65;6.85;;;23.10;57.60;;;;;;5094089;28;20164;-81
2021/07/05 02:36:33;;;;;;;7.88;7.07;;;23.10;57.70;;;;;;5093195;28;20215;-83
2021/07/05 02:38:58;;;;;;;7.97;7.18;;;23.10;57.70;;;;;;5110293;28;20549;-83
2021/07/05 02:41:26;;;;;;;8.13;7.32;;;23.00;57.70;;;;;;5076963;28;20271;-84
2021/07/05 02:43:52;;;;;;;7.82;7.07;;;23.00;57.70;;;;;;5093182;28;20183;-83
2021/07/05 02:46:18;;;;;;;8.30;7.40;;;23.00;57.70;;;;;;5093815;28;20161;-82
2021/07/05 02:48:44;;;;;;;8.07;7.28;;;23.00;57.70;;;;;;5093920;28;20514;-81
2021/07/05 02:51:09;;;;;;;7.90;7.10;;;23.00;57.70;;;;;;5093665;28;20160;-81
2021/07/05 02:53:36;;;;;;;8.75;7.35;;;23.10;57.80;;;;;;5093548;28;20216;-81
2021/07/05 02:56:02;;;;;;;7.70;7.00;;;23.10;57.70;;;;;;5093550;28;20220;-82
2021/07/05 02:58:28;;;;;;;8.27;7.47;;;23.00;57.70;;;;;;5093553;28;20159;-80
2021/07/05 03:00:55;;;;;;;7.47;6.78;;;23.00;57.70;;;;;;5094823;28;20223;-82
2021/07/05 03:03:21;;;;;;;8.35;7.43;;;23.10;57.80;;;;;;5076896;28;20274;-82
2021/07/05 03:05:48;;;;;;;7.30;6.60;;;23.00;57.70;;;;;;5093543;28;20239;-82
2021/07/05 03:08:14;;;;;;;7.80;7.00;;;23.10;57.80;;;;;;5093410;28;20488;-81
2021/07/05 03:10:40;;;;;;;8.25;7.45;;;23.10;57.70;;;;;;5093463;28;20156;-81
2021/07/05 03:13:09;;;;;;;7.90;7.10;;;23.10;57.60;;;;;;5110569;28;20579;-83
2021/07/05 03:15:35;;;;;;;7.93;6.78;;;23.10;57.60;;;;;;5109800;28;20219;-81
2021/07/05 03:18:01;;;;;;;8.18;7.32;;;23.10;57.70;;;;;;5075932;28;20259;-83
2021/07/05 03:20:28;;;;;;;8.38;7.57;;;23.10;57.60;;;;;;5093430;28;20157;-81
2021/07/05 03:22:54;;;;;;;8.02;7.22;;;23.10;57.70;;;;;;5093194;28;20260;-84
2021/07/05 03:25:21;;;;;;;7.55;6.80;;;23.10;57.70;;;;;;5076345;28;20164;-82
2021/07/05 03:27:48;;;;;;;7.60;6.90;;;23.10;57.60;;;;;;5093459;28;20214;-82
2021/07/05 03:30:15;;;;;;;7.68;6.88;;;23.10;57.70;;;;;;5093224;28;20171;-83
2021/07/05 03:32:41;;;;;;;8.10;7.30;;;23.10;57.70;;;;;;5094143;28;20153;-83
2021/07/05 03:35:08;;;;;;;7.40;6.65;;;23.00;57.60;;;;;;5094165;28;20153;-81
2021/07/05 03:37:34;;;;;;;7.72;6.93;;;23.10;57.60;;;;;;5092789;28;20161;-83
2021/07/05 03:39:59;;;;;;;8.02;7.22;;;23.10;57.50;;;;;;5092984;28;20157;-83
2021/07/05 03:42:25;;;;;;;7.75;6.95;;;23.10;57.50;;;;;;5092849;28;20179;-81
2021/07/05 03:44:52;;;;;;;7.63;6.88;;;23.10;57.60;;;;;;5092812;28;20156;-81
2021/07/05 03:47:19;;;;;;;7.50;6.78;;;23.10;57.60;;;;;;5091936;28;20539;-81
2021/07/05 03:49:47;;;;;;;7.88;7.07;;;23.10;57.60;;;;;;5091982;28;20192;-81
2021/07/05 03:52:14;;;;;;;7.63;6.78;;;23.10;57.60;;;;;;5074832;28;20192;-81
2021/07/05 03:54:39;;;;;;;8.25;7.18;;;23.10;57.60;;;;;;5108540;28;20236;-83
2021/07/05 03:57:21;;;;;;;8.02;7.22;;;23.20;57.50;;;;;;5093914;28;20565;-83
2021/07/05 03:59:51;;;;;;;7.85;7.03;;;23.20;57.50;;;;;;5060688;28;20242;-80
2021/07/05 04:02:18;;;;;;;7.72;6.93;;;23.20;57.40;;;;;;5091613;28;20191;-81
2021/07/05 04:04:45;;;;;;;7.85;7.00;;;23.20;57.50;;;;;;5091393;28;20231;-84
2021/07/05 04:07:13;;;;;;;7.50;6.80;;;23.20;57.50;;;;;;5108498;28;20709;-81
2021/07/05 04:09:40;;;;;;;8.00;7.20;;;23.20;57.30;;;;;;5108567;28;20204;-83
2021/07/05 04:12:09;;;;;;;7.70;6.93;;;23.30;57.30;;;;;;5091672;28;20279;-83
2021/07/05 04:14:37;;;;;;;7.97;7.18;;;23.30;57.20;;;;;;5075166;28;20216;-83
2021/07/05 04:17:02;;;;;;;7.60;6.80;;;23.30;57.40;;;;;;5108327;28;20223;-81
2021/07/05 04:19:28;;;;;;;7.50;6.80;;;23.30;57.30;;;;;;5075441;28;20157;-82
2021/07/05 04:21:54;;;;;;;8.00;7.20;;;23.30;57.70;;;;;;5075403;28;20152;-83
2021/07/05 04:24:19;;;;;;;7.40;6.70;;;23.30;57.30;;;;;;5075413;28;20163;-82
2021/07/05 04:26:46;;;;;;;7.10;6.40;;;23.30;57.60;;;;;;5092262;28;20164;-83
2021/07/05 04:29:11;;;;;;;7.00;6.30;;;23.30;57.60;;;;;;5092066;28;20731;-84
2021/07/05 04:31:38;;;;;;;7.53;6.82;;;23.30;57.50;;;;;;5092547;28;20232;-82
2021/07/05 04:34:04;;;;;;;7.07;6.38;;;23.30;57.30;;;;;;5092140;28;20259;-81
2021/07/05 04:36:29;;;;;;;7.57;6.88;;;23.40;57.50;;;;;;5075148;28;20279;-79
2021/07/05 04:38:55;;;;;;;6.50;5.90;;;23.50;57.30;;;;;;5092609;28;20149;-81
2021/07/05 04:41:21;;;;;;;7.82;7.03;;;23.50;57.30;;;;;;5092164;28;20157;-81
2021/07/05 04:43:46;;;;;;;8.13;7.10;;;23.40;56.90;;;;;;5092049;28;20149;-81
2021/07/05 04:46:14;;;;;;;7.00;6.30;;;23.40;58.00;;;;;;5075245;28;20276;-81
2021/07/05 04:48:40;;;;;;;7.97;7.18;;;23.40;57.60;;;;;;5075810;28;20245;-82
2021/07/05 04:51:08;;;;;;;7.45;6.63;;;23.50;57.10;;;;;;5092940;28;20615;-81
2021/07/05 04:53:33;;;;;;;7.35;6.60;;;23.50;57.20;;;;;;5094516;28;20231;-82
2021/07/05 04:55:59;;;;;;;7.20;6.50;;;23.50;57.20;;;;;;5094027;28;20200;-84
2021/07/05 04:58:25;;;;;;;6.68;6.03;;;23.50;57.40;;;;;;5094404;28;20657;-83
2021/07/05 05:00:51;;;;;;;7.38;6.63;;;23.50;57.30;;;;;;5077099;28;20169;-83
2021/07/05 05:03:17;;;;;;;7.05;6.35;;;23.40;57.30;;;;;;5093803;28;20196;-84
2021/07/05 05:05:44;;;;;;;7.22;6.53;;;23.40;57.50;;;;;;5094194;28;20207;-81
2021/07/05 05:08:10;;;;;;;8.23;7.32;;;23.40;57.40;;;;;;5093457;28;20145;-80
2021/07/05 05:10:36;;;;;;;7.10;6.50;;;23.40;57.40;;;;;;5076860;28;20172;-81
2021/07/05 05:13:04;;;;;;;7.20;6.50;;;23.40;57.50;;;;;;5077121;28;20161;-81
2021/07/05 05:15:32;;;;;;;7.50;6.70;;;23.50;57.40;;;;;;5075663;28;20215;-81
2021/07/05 05:18:00;;;;;;;7.13;6.43;;;23.50;57.30;;;;;;5092321;28;20176;-81
2021/07/05 05:20:28;;;;;;;7.43;6.72;;;23.60;57.50;;;;;;5108945;28;20189;-81
2021/07/05 05:22:55;;;;;;;7.25;6.57;;;23.50;56.90;;;;;;5091566;28;20189;-82
2021/07/05 05:25:23;;;;;;;7.25;6.55;;;23.40;57.40;;;;;;5091183;28;20242;-83
2021/07/05 05:27:50;;;;;;;7.20;6.50;;;23.40;57.40;;;;;;5091060;28;20726;-84
2021/07/05 05:30:19;;;;;;;6.85;6.15;;;23.40;57.60;;;;;;5073877;28;20185;-82
2021/07/05 05:32:46;;;;;;;6.70;6.10;;;23.60;57.30;;;;;;5057131;28;20216;-82
2021/07/05 05:35:14;;;;;;;6.95;6.35;;;23.60;57.30;;;;;;5108028;28;20184;-81
2021/07/05 05:37:39;;;;;;;7.70;6.35;;;23.60;57.40;;;;;;5107970;28;20180;-83
2021/07/05 05:40:06;;;;;;;7.63;6.82;;;23.70;57.30;;;;;;5091581;28;20699;-83
2021/07/05 05:42:31;;;;;;;6.65;5.97;;;23.70;57.30;;;;;;5093647;28;20205;-84
2021/07/05 05:44:57;;;;;;;7.15;6.47;;;23.60;57.30;;;;;;5094890;28;20546;-82
2021/07/05 05:47:24;;;;;;;7.13;6.43;;;23.70;57.00;;;;;;5095121;28;20244;-82
2021/07/05 05:49:50;;;;;;;6.90;6.20;;;23.60;57.30;;;;;;5096117;28;20163;-81
2021/07/05 05:52:16;;;;;;;7.03;6.32;;;23.70;57.40;;;;;;5094905;28;20185;-81
2021/07/05 05:54:42;;;;;;;6.88;5.90;;;23.70;57.10;;;;;;5094726;28;20231;-82
2021/07/05 05:57:24;;;;;;;6.68;6.07;;;23.70;57.10;;;;;;5094784;28;20222;-82
2021/07/05 05:59:51;;;;;;;7.30;6.60;;;23.50;57.20;;;;;;5094673;28;20168;-81
2021/07/05 06:02:16;;;;;;;6.82;6.13;;;23.60;57.50;;;;;;5094985;28;20153;-84
2021/07/05 06:04:42;;;;;;;6.57;5.90;;;23.60;57.10;;;;;;5095881;28;20543;-84
2021/07/05 06:07:08;;;;;;;6.20;5.60;;;23.50;57.80;;;;;;5077761;28;20534;-83
2021/07/05 06:09:33;;;;;;;7.10;6.40;;;23.60;57.70;;;;;;5094578;28;20220;-82
2021/07/05 06:11:59;;;;;;;7.10;6.40;;;23.60;57.50;;;;;;5077743;28;20196;-81
2021/07/05 06:14:25;;;;;;;6.95;6.25;;;23.70;57.50;;;;;;5094508;28;20165;-81
2021/07/05 06:16:51;;;;;;;6.95;6.25;;;23.60;57.30;;;;;;5094311;28;20197;-84
2021/07/05 06:19:16;;;;;;;6.85;6.15;;;23.60;57.60;;;;;;5077827;28;20187;-81
2021/07/05 06:21:42;;;;;;;6.95;6.25;;;23.60;57.60;;;;;;5094488;28;20236;-83
2021/07/05 06:24:07;;;;;;;6.65;5.97;;;23.60;57.70;;;;;;5094329;28;20264;-83
2021/07/05 06:26:33;;;;;;;7.05;6.35;;;23.60;58.20;;;;;;5094375;28;20525;-83
2021/07/05 06:28:59;;;;;;;6.55;5.95;;;23.60;58.20;;;;;;5094289;28;20161;-81
2021/07/05 06:31:25;;;;;;;6.72;6.10;;;23.50;59.40;;;;;;5077272;28;20214;-82
2021/07/05 06:33:50;;;;;;;6.72;6.03;;;23.60;59.20;;;;;;5094237;28;20153;-81
2021/07/05 06:36:17;;;;;;;6.47;5.80;;;23.50;59.70;;;;;;5093983;28;20604;-81
2021/07/05 06:38:43;;;;;;;6.20;5.63;;;23.60;59.30;;;;;;5077225;28;20164;-82
2021/07/05 06:41:08;;;;;;;7.03;6.38;;;23.50;59.40;;;;;;5094243;28;20179;-82
2021/07/05 06:43:34;;;;;;;6.93;6.22;;;23.50;58.90;;;;;;5077229;28;20179;-82
2021/07/05 06:46:01;;;;;;;6.70;6.10;;;23.40;59.50;;;;;;5094930;28;20172;-82
2021/07/05 06:48:26;;;;;;;6.90;6.20;;;23.30;58.80;;;;;;5094990;28;20156;-84
2021/07/05 06:50:52;;;;;;;6.43;5.82;;;23.30;59.50;;;;;;5094939;28;20153;-83
2021/07/05 06:53:18;;;;;;;6.65;6.05;;;23.40;60.00;;;;;;5093299;28;20607;-83
2021/07/05 06:55:44;;;;;;;7.32;6.50;;;23.60;59.90;;;;;;5093436;28;20201;-83
2021/07/05 06:58:10;;;;;;;7.05;6.35;;;23.50;59.50;;;;;;5077307;28;20643;-83
2021/07/05 07:00:35;;;;;;;6.80;6.10;;;23.50;58.90;;;;;;5094299;28;20248;-83
2021/07/05 07:03:04;;;;;;;6.88;6.28;;;23.40;59.00;;;;;;5094094;28;20161;-82
2021/07/05 07:05:33;;;;;;;6.93;6.22;;;23.40;59.50;;;;;;5077657;28;20594;-83
2021/07/05 07:07:59;;;;;;;6.70;6.00;;;23.40;59.20;;;;;;5093833;28;20623;-83
2021/07/05 07:10:25;;;;;;;6.82;6.13;;;23.40;59.40;;;;;;5094929;28;20232;-83
2021/07/05 07:12:53;;;;;;;6.93;6.28;;;23.40;59.50;;;;;;5076829;28;20191;-83
2021/07/05 07:15:22;;;;;;;6.90;6.20;;;23.40;60.20;;;;;;5077253;28;20630;-83
2021/07/05 07:17:53;;;;;;;6.75;6.15;;;23.50;59.80;;;;;;5094127;28;20169;-82
2021/07/05 07:20:19;;;;;;;7.18;6.47;;;23.50;59.90;;;;;;5077689;28;20197;-83
2021/07/05 07:22:44;;;;;;;7.00;6.30;;;23.50;59.50;;;;;;5093429;28;20148;-83
2021/07/05 07:25:13;;;;;;;6.82;6.13;;;23.50;59.50;;;;;;5077220;28;20164;-84
2021/07/05 07:27:40;;;;;;;6.70;6.10;;;23.50;59.20;;;;;;5096003;28;20543;-82
2021/07/05 07:30:07;;;;;;;7.03;6.00;;;23.50;59.40;;;;;;5079499;28;20183;-83
2021/07/05 07:32:34;;;;;;;7.00;6.30;;;23.50;59.60;;;;;;5096209;28;20161;-83
2021/07/05 07:35:01;;;;;;;7.07;6.43;;;23.50;59.40;;;;;;5096149;28;20159;-83
2021/07/05 07:37:26;;;;;;;7.32;6.63;;;23.60;59.40;;;;;;5096024;28;20175;-83
2021/07/05 07:39:58;;;;;;;8.38;6.22;;;23.60;59.30;;;;;;5079970;28;20224;-83
2021/07/05 07:42:24;;;;;;;7.10;6.38;;;23.60;59.20;;;;;;5081405;28;20183;-84
2021/07/05 07:44:49;;;;;;;6.85;6.18;;;23.60;59.50;;;;;;5095346;28;20231;-83
2021/07/05 07:47:15;;;;;;;6.65;6.05;;;23.60;59.20;;;;;;5095027;28;20160;-83
2021/07/05 07:49:41;;;;;;;8.50;6.30;;;23.70;59.20;;;;;;5077566;28;20217;-82
2021/07/05 07:52:06;;;;;;;7.70;6.90;;;23.70;59.30;;;;;;5077968;28;20183;-84
2021/07/05 07:54:32;;;;;;;6.47;5.88;;;23.70;59.40;;;;;;5094153;28;20582;-83
2021/07/05 07:56:58;;;;;;;7.43;6.47;;;23.70;59.20;;;;;;5092998;28;20271;-83
2021/07/05 07:59:24;;;;;;;7.18;6.47;;;23.80;59.10;;;;;;5076689;28;20173;-83
2021/07/05 08:01:49;;;;;;;7.45;6.70;;;23.80;59.30;;;;;;5076896;28;20176;-83
2021/07/05 08:04:15;;;;;;;7.70;6.90;;;23.80;59.40;;;;;;5093645;28;20290;-84
2021/07/05 08:06:41;;;;;;;7.50;6.80;;;23.70;59.50;;;;;;5093088;28;20172;-82
2021/07/05 08:09:08;;;;;;;7.60;6.80;;;23.80;59.70;;;;;;5076119;28;20536;-83
2021/07/05 08:11:34;;;;;;;7.20;6.50;;;23.80;59.60;;;;;;5094018;28;20294;-83
2021/07/05 08:14:00;;;;;;;7.00;6.30;;;23.80;59.40;;;;;;5095102;28;20161;-83
2021/07/05 08:16:26;;;;;;;7.93;6.75;;;23.90;59.60;;;;;;5076279;28;20228;-83
2021/07/05 08:18:52;;;;;;;7.47;6.78;;;23.90;59.50;;;;;;5076469;28;20258;-83
2021/07/05 08:21:17;;;;;;;8.73;7.03;;;23.90;60.10;;;;;;5076240;28;20160;-83
2021/07/05 08:23:43;;;;;;;7.07;6.40;;;23.90;59.80;;;;;;5093436;28;20195;-82
2021/07/05 08:26:09;;;;;;;7.60;6.90;;;23.90;59.30;;;;;;5092818;28;20161;-84
2021/07/05 08:28:35;;;;;;;7.93;7.00;;;23.80;59.50;;;;;;5092110;28;20157;-83
2021/07/05 08:31:01;;;;;;;7.57;6.88;;;23.80;60.10;;;;;;5093314;28;20160;-84
2021/07/05 08:33:27;;;;;;;7.45;6.75;;;23.80;59.80;;;;;;5092220;28;20175;-83
2021/07/05 08:35:53;;;;;;;7.78;6.97;;;23.80;60.00;;;;;;5126099;28;20574;-83
2021/07/05 08:38:19;;;;;;;8.02;7.22;;;23.90;60.10;;;;;;5075469;28;20232;-84
2021/07/05 08:40:44;;;;;;;7.65;6.95;;;23.90;59.70;;;;;;5092760;28;20160;-83
2021/07/05 08:43:11;;;;;;;8.05;7.25;;;23.90;59.80;;;;;;5092277;28;20145;-86
2021/07/05 08:45:36;;;;;;;9.32;7.45;;;23.90;60.10;;;;;;5075607;28;20171;-83
2021/07/05 08:48:03;;;;;;;8.48;7.35;;;23.90;59.80;;;;;;5075304;28;20160;-83
2021/07/05 08:50:29;;;;;;;7.85;7.05;;;23.80;60.00;;;;;;5092672;28;20149;-84
2021/07/05 08:52:56;;;;;;;8.32;7.13;;;23.80;60.50;;;;;;5075280;28;20220;-84
2021/07/05 08:55:23;;;;;;;8.52;7.63;;;23.80;60.60;;;;;;5092440;28;20249;-83
2021/07/05 08:57:49;;;;;;;8.77;7.88;;;23.80;60.50;;;;;;5076521;28;20545;-83
2021/07/05 09:00:25;;;;;;;8.00;7.20;;;23.70;60.90;;;;;;5091833;28;20183;-83
2021/07/05 09:02:51;;;;;;;9.43;7.78;;;23.70;61.10;;;;;;5093211;28;20153;-82
2021/07/05 09:05:17;;;;;;;8.80;7.85;;;23.60;61.10;;;;;;5092159;28;20157;-83
2021/07/05 09:08:08;;;;;;;8.27;7.47;;;23.60;61.30;;;;;;5091922;28;20157;-83
2021/07/05 09:10:44;;;;;;;7.78;7.07;;;23.70;61.60;;;;;;5091750;28;20171;-83
2021/07/05 09:13:13;;;;;;;8.65;7.75;;;23.70;61.20;;;;;;5075156;28;20165;-82
2021/07/05 09:15:45;;;;;;;8.60;7.80;;;23.70;61.40;;;;;;5074707;28;20635;-83
2021/07/05 09:18:30;;;;;;;8.60;7.70;;;23.80;61.40;;;;;;5095086;28;20153;-84
2021/07/05 09:21:08;;;;;;;9.00;8.10;;;23.70;61.40;;;;;;5096818;28;20160;-83
2021/07/05 09:23:34;;;;;;;10.02;8.20;;;23.70;61.50;;;;;;5095792;28;20157;-83
2021/07/05 09:25:59;;;;;;;9.30;8.40;;;23.70;61.80;;;;;;5096829;28;20160;-83
2021/07/05 09:28:25;;;;;;;9.43;8.18;;;23.70;61.80;;;;;;5095782;28;20157;-84
2021/07/05 09:30:52;;;;;;;10.00;9.00;;;23.80;61.80;;;;;;5096725;28;20153;-84
2021/07/05 09:33:21;;;;;;;9.27;8.38;;;23.80;61.90;;;;;;5095582;28;20171;-83
2021/07/05 09:35:50;;;;;;;9.20;8.30;;;23.80;61.90;;;;;;5078206;28;20228;-83
2021/07/05 09:38:31;;;;;;;9.90;8.70;;;23.80;61.90;;;;;;5095489;28;20599;-83
2021/07/05 09:40:57;;;;;;;10.13;9.13;;;23.80;61.90;;;;;;5095015;28;20149;-84
2021/07/05 09:43:25;;;;;;;10.13;9.13;;;23.90;61.80;;;;;;5077977;28;20160;-83
2021/07/05 09:45:51;;;;;;;10.88;9.20;;;23.90;61.40;;;;;;5095312;28;20157;-83
2021/07/05 09:48:20;;;;;;;9.98;8.80;;;24.00;61.50;;;;;;5094823;28;20611;-84
2021/07/05 09:50:58;;;;;;;10.38;8.95;;;24.00;61.40;;;;;;5095133;28;20236;-84
2021/07/05 09:53:27;;;;;;;11.68;8.27;;;24.00;61.10;;;;;;5094757;28;20698;-83
2021/07/05 09:55:53;;;;;;;10.15;9.15;;;24.00;61.20;;;;;;5094938;28;20382;-83
2021/07/05 09:58:30;;;;;;;9.20;8.30;;;24.00;61.00;;;;;;5095007;28;20209;-82
2021/07/05 10:00:56;;;;;;;10.48;9.38;;;24.10;61.00;;;;;;5078252;28;20165;-83
2021/07/05 10:03:33;;;;;;;11.02;9.93;;;24.10;60.70;;;;;;5094633;28;20637;-83
2021/07/05 10:06:13;;;;;;;10.00;8.90;;;24.10;60.90;;;;;;5077561;28;20541;-82
2021/07/05 10:08:39;;;;;;;9.55;8.60;;;24.10;60.80;;;;;;5094981;28;20229;-83
2021/07/05 10:11:06;;;;;;;10.88;8.95;;;24.10;60.60;;;;;;5096288;28;20157;-83
2021/07/05 10:13:33;;;;;;;10.85;8.23;;;24.10;60.50;;;;;;5095741;28;20172;-83
2021/07/05 10:16:10;;;;;;;11.15;9.73;;;24.10;60.40;;;;;;5095583;28;20189;-82
2021/07/05 10:18:36;;;;;;;9.60;8.60;;;24.10;60.50;;;;;;5094472;28;20251;-83
2021/07/05 10:21:03;;;;;;;12.95;9.48;;;24.00;60.40;;;;;;5077494;28;20535;-83
2021/07/05 10:23:29;;;;;;;11.85;9.93;;;24.10;60.50;;;;;;5095551;28;20175;-83
2021/07/05 10:25:55;;;;;;;9.15;8.25;;;24.00;60.50;;;;;;5095540;28;20164;-82
2021/07/05 10:28:21;;;;;;;10.85;9.85;;;24.20;60.40;;;;;;5076968;28;20177;-83
2021/07/05 10:30:50;;;;;;;10.40;9.25;;;24.20;60.20;;;;;;5077898;28;20181;-83
2021/07/05 10:33:17;;;;;;;10.80;9.70;;;24.10;60.40;;;;;;5077555;28;20175;-82
2021/07/05 10:35:45;;;;;;;9.57;8.63;;;24.10;60.40;;;;;;5094558;28;20636;-83
2021/07/05 10:38:22;;;;;;;10.63;9.52;;;24.20;59.80;;;;;;5095521;28;20148;-82
2021/07/05 10:40:51;;;;;;;11.98;9.43;;;24.10;59.90;;;;;;5094783;28;20145;-83
2021/07/05 10:43:20;;;;;;;11.18;9.32;;;24.20;59.80;;;;;;5094546;28;20153;-83
2021/07/05 10:45:50;;;;;;;10.18;9.18;;;24.20;59.90;;;;;;5094952;28;20244;-82
2021/07/05 10:48:17;;;;;;;9.60;8.60;;;24.20;59.80;;;;;;5095197;28;20233;-84
2021/07/05 10:50:50;;;;;;;10.55;8.75;;;24.30;59.70;;;;;;5094422;28;20153;-82
2021/07/05 10:53:19;;;;;;;10.23;8.57;;;24.30;59.40;;;;;;5093788;28;20256;-82
2021/07/05 10:55:49;;;;;;;10.38;9.32;;;24.30;59.50;;;;;;5093885;28;20185;-84
2021/07/05 10:58:21;;;;;;;9.52;8.63;;;24.30;59.40;;;;;;5093846;28;20175;-83
2021/07/05 11:00:49;;;;;;;10.00;9.00;;;24.40;59.20;;;;;;5094091;28;20153;-83
2021/07/05 11:03:48;;;;;;;10.45;9.30;;;24.40;59.40;;;;;;5094803;28;20153;-84
2021/07/05 11:06:41;;;;;;;10.23;9.23;;;24.30;59.40;;;;;;5093473;28;20211;-82
2021/07/05 11:09:08;;;;;;;10.27;9.20;;;24.30;59.60;;;;;;5114736;27;20632;-82
2021/07/05 11:11:34;;;;;;;13.70;9.93;;;24.20;59.60;;;;;;5076890;28;20164;-83
2021/07/05 11:14:20;;;;;;;10.18;8.55;;;24.20;59.60;;;;;;5094461;28;20161;-83
2021/07/05 11:17:08;;;;;;;10.25;9.27;;;24.30;59.60;;;;;;5093388;28;20245;-82
2021/07/05 11:19:58;;;;;;;10.57;9.20;;;24.30;59.50;;;;;;5079384;28;20165;-82
2021/07/05 11:22:29;;;;;;;10.40;8.38;;;24.30;59.40;;;;;;5094629;28;20161;-82
2021/07/05 11:24:57;;;;;;;9.38;8.40;;;24.30;59.20;;;;;;5093469;28;20159;-82
2021/07/05 11:27:49;;;;;;;10.65;8.85;;;24.40;59.20;;;;;;5094735;28;20157;-82
2021/07/05 11:30:26;;;;;;;10.27;9.07;;;24.40;59.20;;;;;;5094859;28;20161;-82
2021/07/05 11:32:56;;;;;;;9.40;8.50;;;24.40;58.90;;;;;;5093732;28;20153;-83
2021/07/05 11:35:36;;;;;;;10.13;9.23;;;24.40;59.00;;;;;;5077280;28;20515;-83
2021/07/05 11:38:07;;;;;;;11.15;8.95;;;24.40;58.80;;;;;;5094155;28;20239;-83
2021/07/05 11:40:39;;;;;;;10.57;9.48;;;24.40;58.80;;;;;;5093995;28;20221;-84
2021/07/05 11:43:05;;;;;;;9.63;8.68;;;24.50;59.30;;;;;;5093821;28;20149;-83
2021/07/05 11:45:45;;;;;;;9.82;8.45;;;24.50;58.50;;;;;;5076163;28;20268;-83
2021/07/05 11:48:31;;;;;;;10.93;9.05;;;24.50;58.50;;;;;;5094276;28;20184;-84
2021/07/05 11:50:57;;;;;;;9.45;8.45;;;24.50;58.40;;;;;;5093740;28;20263;-85
2021/07/05 11:53:23;;;;;;;10.30;9.20;;;24.50;58.40;;;;;;5092547;28;20212;-82
2021/07/05 11:55:49;;;;;;;11.07;9.55;;;24.50;58.40;;;;;;5075477;28;20691;-83
2021/07/05 11:58:15;;;;;;;9.77;8.77;;;24.50;58.30;;;;;;5093652;28;20217;-83
2021/07/05 12:00:41;;;;;;;10.73;9.65;;;24.50;58.50;;;;;;5092733;28;20191;-82
2021/07/05 12:03:09;;;;;;;9.70;8.70;;;24.50;58.30;;;;;;5093573;28;20548;-83
2021/07/05 12:05:36;;;;;;;10.13;8.65;;;24.60;58.30;;;;;;5092618;28;20629;-84
2021/07/05 12:08:04;;;;;;;9.63;8.55;;;24.60;58.90;;;;;;5077488;28;20167;-84
2021/07/05 12:10:31;;;;;;;9.75;8.75;;;24.50;58.30;;;;;;5093106;28;20226;-82
2021/07/05 12:13:15;;;;;;;9.65;8.50;;;24.50;58.30;;;;;;5093082;28;20156;-84
2021/07/05 12:15:42;;;;;;;9.68;8.68;;;24.60;58.20;;;;;;5075619;28;20671;-83
2021/07/05 12:18:09;;;;;;;9.52;8.52;;;24.60;58.10;;;;;;5093589;28;20171;-83
2021/07/05 12:20:35;;;;;;;9.70;8.60;;;24.60;57.90;;;;;;5076780;28;20169;-83
2021/07/05 12:23:14;;;;;;;10.25;9.15;;;24.60;57.90;;;;;;5092469;28;20157;-82
2021/07/05 12:25:40;;;;;;;10.00;8.85;;;24.70;57.80;;;;;;5093682;28;20165;-83
2021/07/05 12:28:14;;;;;;;11.50;9.18;;;24.70;57.70;;;;;;5092725;28;20588;-82
2021/07/05 12:30:46;;;;;;;9.57;8.63;;;24.70;57.80;;;;;;5092329;28;20164;-84
2021/07/05 12:33:12;;;;;;;9.90;8.90;;;24.70;57.80;;;;;;5075890;28;20160;-83
2021/07/05 12:35:38;;;;;;;9.63;8.63;;;24.60;57.80;;;;;;5094347;28;20267;-82
2021/07/05 12:38:10;;;;;;;10.60;9.50;;;24.70;57.80;;;;;;5092819;28;20588;-83
2021/07/05 12:40:36;;;;;;;11.00;9.90;;;24.70;57.80;;;;;;5075892;28;20247;-84
2021/07/05 12:43:07;;;;;;;9.95;8.95;;;24.70;57.60;;;;;;5092816;28;20153;-82
2021/07/05 12:45:54;;;;;;;9.77;8.35;;;24.70;57.60;;;;;;5092839;28;20220;-83
2021/07/05 12:48:23;;;;;;;11.38;8.63;;;24.80;57.80;;;;;;5093990;28;20157;-84
2021/07/05 12:50:55;;;;;;;10.00;8.88;;;24.70;57.60;;;;;;5092552;28;20160;-82